East Palestine, Ohio
Current Conditions -  °F | °C
As of 9:47 AM on Tuesday 21 Oct 2014 (Local Time) from KBVI Reporting Station
Light Rain Light Rain  
Wind Chill: 50°   Ceiling: 5000
Heat Index: 50°   Visibility: 7mi
Dew Point: 48°   Wind: 8mph
Humidity: 94%   Direction: 320°NW
Pressure: 29.88"   Gusts: NA
Location:  40.83°N, 80.54°W
Report Text: KBVI 211347Z 32007KT 7SM -RA SCT007 SCT023 OVC050 10/09 A2988
Loading
Personal Weather Stations






























Interactive Weather Map
Tropical Storm Tracking
New forecast layout! Learn more

10-Day Weather Forecast

Advertisements
Track Severe Weather on mobile